Time;durP1;ratioP1;P1;durP2;ratioP2;P2;SDS_P1;SDS_P2;PMS_P1;PMS_P2;Temp;Humidity;BMP_temperature;BMP_pressure;BME280_temperature;BME280_humidity;BME280_pressure;Samples;Min_cycle;Max_cycle;Signal;HPM_P1;HPM_P2
2022/10/18 00:01:50;;;;;;;7.35;3.55;;;;;;;12.78;53.05;93841.09;2051111;70;20162;-75
2022/10/18 00:04:16;;;;;;;10.07;3.55;;;;;;;12.72;54.10;93844.97;2051537;70;20304;-73
2022/10/18 00:06:43;;;;;;;7.82;3.50;;;;;;;12.75;53.36;93842.31;2051482;70;20146;-74
2022/10/18 00:09:08;;;;;;;9.73;3.80;;;;;;;12.55;54.83;93850.81;2051589;70;20182;-74
2022/10/18 00:11:34;;;;;;;9.52;4.05;;;;;;;12.62;54.46;93849.91;2051161;70;20504;-74
2022/10/18 00:14:00;;;;;;;10.38;3.95;;;;;;;12.64;53.98;93840.84;2051639;70;20150;-76
2022/10/18 00:16:25;;;;;;;11.63;4.13;;;;;;;12.60;54.49;93846.97;2051576;70;20174;-75
2022/10/18 00:18:51;;;;;;;7.50;3.40;;;;;;;12.58;54.25;93851.72;2051030;70;20150;-75
2022/10/18 00:21:20;;;;;;;6.75;3.42;;;;;;;12.61;53.90;93844.88;2051900;70;20170;-75
2022/10/18 00:23:48;;;;;;;8.98;3.67;;;;;;;12.65;53.50;93848.72;2051814;70;20162;-74
2022/10/18 00:26:19;;;;;;;12.48;3.47;;;;;;;12.45;55.18;93856.47;2051760;70;20177;-75
2022/10/18 00:28:49;;;;;;;11.27;3.58;;;;;;;12.46;55.04;93852.34;2051020;70;20594;-76
2022/10/18 00:31:23;;;;;;;9.20;3.53;;;;;;;12.43;55.13;93847.88;2051368;70;20183;-75
2022/10/18 00:33:52;;;;;;;8.93;3.65;;;;;;;12.38;55.75;93846.09;2050930;70;20241;-75
2022/10/18 00:36:18;;;;;;;11.13;3.90;;;;;;;12.32;55.58;93853.38;2051339;70;20168;-77
2022/10/18 00:38:44;;;;;;;8.70;3.85;;;;;;;12.34;55.50;93845.81;2053585;70;20142;-76
2022/10/18 00:41:13;;;;;;;7.53;3.55;;;;;;;12.35;54.89;93843.72;2051422;70;20618;-76
2022/10/18 00:43:58;;;;;;;9.75;3.70;;;;;;;12.27;56.00;93846.69;2051697;70;20146;-75
2022/10/18 00:46:29;;;;;;;10.23;3.70;;;;;;;12.18;55.71;93847.44;2048114;70;20170;-77
2022/10/18 00:49:04;;;;;;;7.03;3.33;;;;;;;11.82;58.51;93854.72;2051509;70;20150;-75
2022/10/18 00:51:38;;;;;;;7.65;3.53;;;;;;;11.97;56.87;93855.75;2051259;70;20542;-75
2022/10/18 00:54:04;;;;;;;12.73;4.80;;;;;;;12.11;56.17;93848.34;2051565;70;20150;-74
2022/10/18 00:56:32;;;;;;;14.93;5.70;;;;;;;12.03;57.29;93847.72;2051417;70;20180;-75
2022/10/18 00:58:58;;;;;;;17.48;5.57;;;;;;;12.14;55.68;93847.91;2051441;70;20181;-75
2022/10/18 01:01:24;;;;;;;10.77;4.85;;;;;;;12.18;55.99;93855.91;2050880;70;20162;-75
2022/10/18 01:03:51;;;;;;;10.88;4.28;;;;;;;12.20;56.24;93848.34;2051612;70;20181;-75
2022/10/18 01:06:16;;;;;;;8.75;4.15;;;;;;;12.03;56.53;93851.28;2051697;70;20700;-74
2022/10/18 01:08:56;;;;;;;20.42;5.03;;;;;;;11.83;57.25;93856.19;2051681;70;20165;-74
2022/10/18 01:11:44;;;;;;;11.45;4.65;;;;;;;12.00;56.20;93854.56;2048415;70;20503;-74
2022/10/18 01:14:24;;;;;;;8.20;4.15;;;;;;;12.03;55.69;93842.81;2051552;70;20226;-75
2022/10/18 01:17:23;;;;;;;10.63;4.40;;;;;;;12.01;55.86;93847.59;2051549;70;20142;-75
2022/10/18 01:20:19;;;;;;;11.63;4.13;;;;;;;12.02;56.11;93847.00;2047537;70;20154;-75
2022/10/18 01:22:57;;;;;;;6.47;3.35;;;;;;;11.99;56.22;93830.50;2051206;70;20808;-75
2022/10/18 01:25:40;;;;;;;5.65;2.63;;;;;;;12.14;54.85;93827.38;2051614;70;20222;-75
2022/10/18 01:28:17;;;;;;;;;;;;;;;12.18;54.41;93827.66;2051407;70;20198;-75
2022/10/18 01:31:03;;;;;;;11.85;3.55;;;;;;;12.08;54.66;93827.66;2051390;70;20566;-75
2022/10/18 01:33:40;;;;;;;8.75;3.70;;;;;;;11.87;55.78;93836.75;2051281;70;20154;-75
2022/10/18 01:36:24;;;;;;;8.18;3.20;;;;;;;12.09;54.43;93848.16;2053602;70;20229;-75
2022/10/18 01:38:54;;;;;;;8.75;3.35;;;;;;;11.88;55.84;93843.13;2051344;70;20537;-74
2022/10/18 01:41:24;;;;;;;6.68;3.20;;;;;;;12.07;55.08;93848.03;2053705;70;20177;-74
2022/10/18 01:43:54;;;;;;;6.22;3.10;;;;;;;12.00;55.30;93835.53;2051499;70;20233;-74
2022/10/18 01:46:23;;;;;;;13.75;6.30;;;;;;;11.87;55.70;93845.22;2051220;70;20206;-74
2022/10/18 01:48:51;;;;;;;10.10;4.32;;;;;;;11.83;55.89;93841.34;2048214;70;20182;-74
2022/10/18 01:51:28;;;;;;;10.10;4.03;;;;;;;11.90;55.56;93846.81;2051667;70;20126;-75
2022/10/18 01:53:53;;;;;;;7.22;3.78;;;;;;;11.95;54.94;93839.41;2052002;70;20217;-75
2022/10/18 01:56:21;;;;;;;4.93;2.90;;;;;;;11.97;54.84;93839.56;2051783;70;20158;-75
2022/10/18 01:58:52;;;;;;;7.15;2.92;;;;;;;11.98;55.12;93831.84;2051712;70;20577;-75
2022/10/18 02:01:46;;;;;;;12.15;3.28;;;;;;;11.87;54.96;93833.19;2051703;70;20162;-75
2022/10/18 02:04:21;;;;;;;;;;;;;;;11.94;55.02;93847.13;2051783;70;20513;-75
2022/10/18 02:06:54;;;;;;;6.95;3.15;;;;;;;11.97;54.64;93847.28;2051680;70;20112;-75
2022/10/18 02:09:32;;;;;;;5.88;3.17;;;;;;;11.99;54.24;93831.25;2051673;70;20189;-75
2022/10/18 02:11:59;;;;;;;5.82;3.22;;;;;;;11.94;54.67;93841.47;2048660;70;20510;-75
2022/10/18 02:14:26;;;;;;;10.40;3.33;;;;;;;11.94;54.59;93837.94;2051690;70;20141;-75
2022/10/18 02:16:55;;;;;;;6.05;3.08;;;;;;;11.90;55.31;93834.81;2051553;70;20166;-75
2022/10/18 02:19:29;;;;;;;5.95;3.00;;;;;;;11.51;56.67;93834.72;2051691;70;20249;-75
2022/10/18 02:21:57;;;;;;;7.28;3.25;;;;;;;11.73;55.95;93835.66;2051831;70;20146;-75
2022/10/18 02:24:29;;;;;;;7.45;3.00;;;;;;;11.78;55.50;93833.88;2051773;70;20165;-75
2022/10/18 02:26:55;;;;;;;12.57;2.80;;;;;;;11.80;54.94;93837.59;2051745;70;20239;-75
2022/10/18 02:29:21;;;;;;;5.40;2.83;;;;;;;11.72;56.55;93839.81;2051751;70;20146;-75
2022/10/18 02:31:50;;;;;;;6.75;2.88;;;;;;;11.69;56.20;93838.91;2051639;70;20154;-75
2022/10/18 02:34:22;;;;;;;10.75;2.92;;;;;;;11.76;55.54;93833.72;2051653;70;20197;-75
2022/10/18 02:36:48;;;;;;;;;;;;;;;11.78;55.01;93839.53;2051849;70;20141;-75
2022/10/18 02:39:18;;;;;;;7.78;3.15;;;;;;;11.44;57.35;93839.16;2051684;70;20406;-75
2022/10/18 02:41:44;;;;;;;7.20;2.35;;;;;;;11.57;56.17;93840.81;2051759;70;20131;-76
2022/10/18 02:44:10;;;;;;;5.78;2.20;;;;;;;11.66;55.62;93837.28;2051881;70;20566;-76
2022/10/18 02:46:36;;;;;;;4.85;2.80;;;;;;;11.78;54.86;93842.34;2051559;70;20315;-75
2022/10/18 02:49:01;;;;;;;5.78;2.83;;;;;;;11.98;53.66;93843.88;2051666;70;20138;-75
2022/10/18 02:51:27;;;;;;;6.00;2.50;;;;;;;12.02;53.60;93838.53;2051741;70;20150;-75
2022/10/18 02:53:52;;;;;;;6.35;2.78;;;;;;;12.03;53.30;93836.44;2051705;70;20502;-75
2022/10/18 02:56:18;;;;;;;4.45;2.60;;;;;;;12.07;52.82;93839.56;2051693;70;20493;-75
2022/10/18 02:58:44;;;;;;;4.72;2.42;;;;;;;11.97;53.50;93845.22;2051806;70;20173;-75
2022/10/18 03:01:09;;;;;;;4.88;2.65;;;;;;;11.95;53.33;93842.22;2051543;70;20178;-76
2022/10/18 03:03:35;;;;;;;7.10;3.20;;;;;;;11.82;54.22;93840.59;2053813;70;20532;-76
2022/10/18 03:06:00;;;;;;;7.47;2.72;;;;;;;11.70;55.14;93839.66;2051509;70;20237;-76
2022/10/18 03:08:26;;;;;;;5.38;2.65;;;;;;;11.85;54.13;93841.47;2051635;70;20169;-76
2022/10/18 03:10:51;;;;;;;5.55;2.60;;;;;;;11.58;56.07;93842.31;2051769;70;20138;-76
2022/10/18 03:13:17;;;;;;;6.72;3.10;;;;;;;11.63;55.30;93849.72;2051704;70;20256;-76
2022/10/18 03:15:43;;;;;;;10.18;3.03;;;;;;;11.74;54.49;93839.22;2051544;70;20244;-76
2022/10/18 03:18:09;;;;;;;6.25;2.80;;;;;;;11.59;55.65;93840.22;2051594;70;20597;-76
2022/10/18 03:20:35;;;;;;;5.93;2.95;;;;;;;11.48;55.99;93835.16;2048406;70;20153;-76
2022/10/18 03:23:00;;;;;;;11.38;3.10;;;;;;;11.48;56.42;93833.09;2051791;70;20146;-76
2022/10/18 03:25:26;;;;;;;8.15;2.83;;;;;;;11.43;56.53;93843.31;2051647;70;20542;-76
2022/10/18 03:27:53;;;;;;;8.15;2.92;;;;;;;11.59;55.76;93845.84;2051566;70;20255;-76
2022/10/18 03:30:18;;;;;;;7.03;2.97;;;;;;;11.57;55.64;93835.19;2051512;70;20146;-76
2022/10/18 03:32:44;;;;;;;4.45;2.78;;;;;;;11.60;55.38;93838.91;2051383;70;20142;-76
2022/10/18 03:35:09;;;;;;;8.65;2.60;;;;;;;11.56;55.46;93835.78;2051618;70;20579;-76
2022/10/18 03:37:35;;;;;;;8.18;2.88;;;;;;;11.58;55.62;93847.94;2051578;70;20582;-76
2022/10/18 03:40:02;;;;;;;8.73;4.22;;;;;;;11.55;55.33;93846.31;2051558;70;20150;-76
2022/10/18 03:42:28;;;;;;;7.90;3.58;;;;;;;11.52;55.48;93855.22;2051594;70;20265;-76
2022/10/18 03:44:54;;;;;;;5.63;3.05;;;;;;;11.33;57.10;93850.25;2051311;70;20154;-76
2022/10/18 03:47:19;;;;;;;6.57;3.38;;;;;;;11.38;56.74;93849.97;2050890;70;20150;-78
2022/10/18 03:49:45;;;;;;;7.82;3.40;;;;;;;11.49;55.64;93848.66;2051651;70;20160;-75
2022/10/18 03:52:10;;;;;;;9.70;3.90;;;;;;;11.40;56.19;93850.13;2051705;70;20600;-76
2022/10/18 03:54:36;;;;;;;8.98;4.18;;;;;;;11.44;56.51;93849.69;2051554;70;20294;-76
2022/10/18 03:57:02;;;;;;;7.05;3.70;;;;;;;11.32;56.75;93852.34;2051482;70;20146;-75
2022/10/18 03:59:28;;;;;;;7.30;3.33;;;;;;;11.34;56.88;93857.38;2051846;70;20208;-76
2022/10/18 04:01:53;;;;;;;7.10;3.78;;;;;;;11.28;57.36;93860.50;2051459;70;20154;-76
2022/10/18 04:04:19;;;;;;;9.77;4.65;;;;;;;11.18;57.32;93860.47;2051485;70;20178;-76
2022/10/18 04:06:44;;;;;;;8.30;4.65;;;;;;;11.25;57.15;93867.28;2051489;70;20213;-76
2022/10/18 04:09:10;;;;;;;13.35;5.95;;;;;;;11.22;57.64;93870.53;2051657;70;20204;-76
2022/10/18 04:11:36;;;;;;;9.73;4.70;;;;;;;11.23;57.76;93877.69;2051488;70;20604;-76
2022/10/18 04:14:02;;;;;;;12.30;4.53;;;;;;;11.26;56.93;93882.88;2051590;70;20154;-76
2022/10/18 04:16:27;;;;;;;7.90;3.75;;;;;;;11.28;56.56;93873.84;2051380;70;20162;-76
2022/10/18 04:18:53;;;;;;;5.88;3.20;;;;;;;11.29;56.57;93869.69;2050946;70;20154;-76
2022/10/18 04:21:19;;;;;;;6.03;2.92;;;;;;;11.30;55.24;93855.00;2051510;70;20153;-76
2022/10/18 04:23:49;;;;;;;17.75;8.32;;;;;;;11.39;56.53;93857.09;2051547;70;20147;-76
2022/10/18 04:26:17;;;;;;;22.17;9.55;;;;;;;11.25;57.29;93853.19;2050941;70;20142;-76
2022/10/18 04:28:43;;;;;;;19.38;8.40;;;;;;;11.19;56.95;93853.47;2051905;70;20147;-76
2022/10/18 04:31:10;;;;;;;14.10;6.78;;;;;;;11.22;56.71;93851.53;2051801;70;20154;-76
2022/10/18 04:33:36;;;;;;;21.00;9.45;;;;;;;10.54;60.65;93858.94;2051298;70;20157;-76
2022/10/18 04:36:02;;;;;;;30.17;13.52;;;;;;;10.73;59.65;93855.50;2051930;70;20153;-76
2022/10/18 04:38:28;;;;;;;19.92;8.98;;;;;;;11.02;57.83;93855.63;2051909;70;20135;-76
2022/10/18 04:40:53;;;;;;;18.52;8.93;;;;;;;11.04;57.66;93850.13;2051796;70;20316;-76
2022/10/18 04:43:21;;;;;;;21.42;9.15;;;;;;;11.00;57.91;93858.31;2051894;70;20598;-77
2022/10/18 04:45:47;;;;;;;20.80;8.88;;;;;;;10.93;58.65;93859.91;2051770;70;20242;-76
2022/10/18 04:48:13;;;;;;;16.38;7.20;;;;;;;11.00;57.82;93861.88;2048491;70;20167;-77
2022/10/18 04:50:39;;;;;;;14.25;6.20;;;;;;;11.08;57.02;93873.75;2054075;70;20662;-75
2022/10/18 04:53:13;;;;;;;15.93;7.90;;;;;;;10.62;60.20;93874.41;2051757;70;20590;-76
2022/10/18 04:55:38;;;;;;;20.38;7.80;;;;;;;10.77;58.98;93872.72;2051802;70;20143;-76
2022/10/18 04:58:04;;;;;;;16.27;7.45;;;;;;;10.80;58.99;93865.91;2048551;70;20217;-76
2022/10/18 05:00:29;;;;;;;15.05;6.70;;;;;;;10.86;58.39;93877.66;2051874;70;20154;-76
2022/10/18 05:02:56;;;;;;;18.83;7.07;;;;;;;10.86;58.18;93878.41;2051686;70;20145;-76
2022/10/18 05:05:22;;;;;;;12.27;5.55;;;;;;;10.91;57.89;93866.13;2051925;70;20144;-76
2022/10/18 05:07:48;;;;;;;9.77;4.80;;;;;;;11.00;58.38;93866.75;2051899;70;20146;-76
2022/10/18 05:10:13;;;;;;;10.40;4.95;;;;;;;11.03;57.71;93863.50;2048776;70;20146;-76
2022/10/18 05:12:42;;;;;;;9.77;4.82;;;;;;;10.92;58.96;93864.78;2051840;70;20200;-76
2022/10/18 05:15:08;;;;;;;9.48;4.45;;;;;;;11.03;58.73;93865.56;2051802;70;20139;-76
2022/10/18 05:17:34;;;;;;;12.40;3.38;;;;;;;11.10;58.17;93864.72;2048544;70;20180;-76
2022/10/18 05:20:00;;;;;;;8.60;4.18;;;;;;;11.26;57.65;93862.41;2052007;70;20525;-76
2022/10/18 05:22:25;;;;;;;11.95;4.43;;;;;;;11.20;56.58;93863.41;2051277;70;20327;-76
2022/10/18 05:24:51;;;;;;;6.93;3.00;;;;;;;11.22;57.32;93860.00;2051853;70;20146;-76
2022/10/18 05:27:18;;;;;;;11.18;5.47;;;;;;;11.23;56.42;93861.50;2051803;70;20166;-76
2022/10/18 05:29:43;;;;;;;13.70;5.07;;;;;;;11.06;58.53;93862.31;2051958;70;20230;-75
2022/10/18 05:32:09;;;;;;;10.90;4.70;;;;;;;11.06;58.88;93873.59;2048440;70;20146;-76
2022/10/18 05:34:34;;;;;;;9.98;4.78;;;;;;;11.07;57.93;93875.09;2051839;70;20158;-76
2022/10/18 05:37:00;;;;;;;9.75;5.43;;;;;;;11.13;57.20;93877.63;2051815;70;20598;-76
2022/10/18 05:39:25;;;;;;;10.20;5.70;;;;;;;11.16;57.64;93879.28;2051567;70;20170;-76
2022/10/18 05:41:51;;;;;;;10.07;5.13;;;;;;;11.17;57.27;93883.56;2051807;70;20230;-76
2022/10/18 05:44:18;;;;;;;9.60;5.28;;;;;;;11.19;58.03;93890.13;2051811;70;20174;-76
2022/10/18 05:46:43;;;;;;;10.27;4.82;;;;;;;11.21;57.52;93886.72;2051609;70;20270;-76
2022/10/18 05:49:12;;;;;;;10.20;4.53;;;;;;;11.29;57.17;93878.16;2051762;70;20546;-76
2022/10/18 05:51:38;;;;;;;7.57;3.97;;;;;;;11.31;56.75;93886.75;2051887;70;20603;-76
2022/10/18 05:54:04;;;;;;;5.95;3.08;;;;;;;11.32;55.72;93889.00;2051667;70;20145;-76
2022/10/18 05:56:29;;;;;;;5.55;3.17;;;;;;;11.44;55.45;93884.28;2051739;70;20158;-76
2022/10/18 05:58:55;;;;;;;6.68;3.20;;;;;;;11.55;55.88;93877.34;2051840;70;20221;-76
2022/10/18 06:01:20;;;;;;;7.93;2.70;;;;;;;11.45;58.16;93887.81;2051625;70;20217;-76
2022/10/18 06:03:46;;;;;;;11.70;4.90;;;;;;;11.35;58.40;93890.63;2051513;70;20606;-76
2022/10/18 06:06:13;;;;;;;10.98;5.45;;;;;;;11.53;55.92;93887.72;2052290;70;20178;-75
2022/10/18 06:08:40;;;;;;;13.05;5.20;;;;;;;11.60;55.28;93893.22;2052584;70;20601;-75
2022/10/18 06:11:14;;;;;;;12.40;4.68;;;;;;;11.73;55.79;93899.78;2052647;70;20142;-76
2022/10/18 06:13:47;;;;;;;8.18;4.93;;;;;;;11.73;55.33;93902.59;2054263;70;20154;-76
2022/10/18 06:16:14;;;;;;;9.70;4.68;;;;;;;11.77;55.95;93894.44;2051975;70;20710;-76
2022/10/18 06:18:41;;;;;;;8.48;4.18;;;;;;;11.79;55.20;93903.09;2051669;70;20138;-76
2022/10/18 06:21:08;;;;;;;11.57;5.15;;;;;;;11.83;55.30;93903.41;2051673;70;20143;-77
2022/10/18 06:23:34;;;;;;;10.10;5.07;;;;;;;11.81;56.39;93909.59;2048292;70;20150;-78
2022/10/18 06:26:02;;;;;;;12.38;5.60;;;;;;;11.85;55.92;93901.47;2051858;70;20154;-77
2022/10/18 06:28:29;;;;;;;15.10;5.57;;;;;;;11.82;56.30;93897.03;2051657;70;20146;-77
2022/10/18 06:30:56;;;;;;;8.38;3.45;;;;;;;11.82;55.28;93897.03;2051546;70;20162;-78
2022/10/18 06:33:22;;;;;;;6.63;2.90;;;;;;;11.91;53.61;93899.13;2051795;70;20628;-78
2022/10/18 06:35:58;;;;;;;5.75;3.08;;;;;;;11.98;53.24;93896.75;2051615;70;20427;-79
2022/10/18 06:38:25;;;;;;;4.45;2.10;;;;;;;12.09;54.25;93899.72;2052063;70;20198;-78
2022/10/18 06:40:50;;;;;;;5.32;2.80;;;;;;;12.09;52.84;93905.38;2051676;70;20230;-77
2022/10/18 06:43:16;;;;;;;4.15;2.53;;;;;;;12.11;52.40;93901.97;2051745;70;20173;-77
2022/10/18 06:45:42;;;;;;;7.93;3.33;;;;;;;12.38;52.34;93911.03;2051514;69;20150;-77
2022/10/18 06:48:08;;;;;;;4.68;2.75;;;;;;;12.50;51.92;93901.97;2051606;70;20176;-77
2022/10/18 06:50:33;;;;;;;5.45;2.80;;;;;;;12.59;52.02;93899.13;2051596;70;20154;-77
2022/10/18 06:53:00;;;;;;;6.72;3.00;;;;;;;12.61;51.51;93904.19;2051534;70;20205;-75
2022/10/18 06:55:25;;;;;;;8.13;3.17;;;;;;;12.82;51.04;93903.56;2051624;70;20137;-77
2022/10/18 06:57:52;;;;;;;8.32;2.67;;;;;;;12.79;51.65;93902.69;2051475;70;20149;-78
2022/10/18 07:00:17;;;;;;;5.30;2.90;;;;;;;12.89;52.17;93911.16;2051512;70;20208;-75
2022/10/18 07:02:43;;;;;;;4.50;2.60;;;;;;;13.00;52.44;93902.03;2051474;70;20158;-77
2022/10/18 07:05:10;;;;;;;11.50;3.42;;;;;;;13.02;52.27;93904.28;2051517;70;20154;-77
2022/10/18 07:07:36;;;;;;;7.70;3.00;;;;;;;13.09;51.90;93906.19;2051445;70;20178;-77
2022/10/18 07:10:02;;;;;;;6.75;3.10;;;;;;;13.07;52.01;93909.63;2051356;70;20261;-77
2022/10/18 07:12:28;;;;;;;6.53;3.08;;;;;;;12.96;51.16;93904.56;2048135;70;20173;-77
2022/10/18 07:14:54;;;;;;;5.22;2.75;;;;;;;13.14;51.03;93907.94;2051285;70;20594;-77
2022/10/18 07:17:19;;;;;;;6.88;2.72;;;;;;;13.12;50.45;93902.91;2051368;70;20237;-77
2022/10/18 07:19:45;;;;;;;5.18;2.80;;;;;;;13.03;50.41;93903.69;2053759;69;20151;-77
2022/10/18 07:22:10;;;;;;;6.75;2.92;;;;;;;13.37;50.19;93893.31;2051455;70;20570;-77
2022/10/18 07:24:36;;;;;;;6.22;3.50;;;;;;;13.44;50.35;93892.41;2051636;70;20269;-77
2022/10/18 07:27:01;;;;;;;9.40;4.50;;;;;;;13.53;50.10;93896.53;2051401;70;20157;-76
2022/10/18 07:29:27;;;;;;;7.10;4.28;;;;;;;13.54;50.61;93898.75;2051460;70;20178;-75
2022/10/18 07:31:53;;;;;;;6.80;4.05;;;;;;;13.48;51.34;93895.50;2051395;70;20158;-75
2022/10/18 07:34:18;;;;;;;9.50;4.10;;;;;;;13.56;50.56;93893.25;2051483;70;20134;-75
2022/10/18 07:36:44;;;;;;;10.38;4.72;;;;;;;13.56;51.59;93892.47;2050827;70;20154;-77
2022/10/18 07:39:10;;;;;;;9.38;3.65;;;;;;;13.58;51.35;93886.97;2051454;70;20146;-77
2022/10/18 07:41:35;;;;;;;6.38;3.30;;;;;;;13.72;51.03;93900.00;2051482;70;20220;-76
2022/10/18 07:44:03;;;;;;;7.35;3.65;;;;;;;13.75;51.21;93897.34;2051367;70;20134;-78
2022/10/18 07:46:28;;;;;;;9.82;5.18;;;;;;;13.65;52.38;93900.19;2053470;70;20174;-77
2022/10/18 07:48:54;;;;;;;11.27;4.78;;;;;;;13.65;52.50;93903.00;2051391;70;20234;-76
2022/10/18 07:51:21;;;;;;;11.77;5.15;;;;;;;13.85;51.86;93895.19;2051400;70;20142;-77
2022/10/18 07:53:47;;;;;;;11.02;4.85;;;;;;;13.93;52.17;93904.97;2050807;70;20225;-77
2022/10/18 07:56:15;;;;;;;13.05;4.88;;;;;;;13.95;52.14;93905.09;2051530;70;20150;-78
2022/10/18 07:58:41;;;;;;;10.63;5.18;;;;;;;14.12;51.13;93900.53;2048757;70;20138;-77
2022/10/18 08:01:08;;;;;;;10.90;4.85;;;;;;;14.23;50.91;93897.75;2047559;70;20166;-76
2022/10/18 08:03:35;;;;;;;8.65;4.35;;;;;;;14.28;51.26;93898.03;2048000;70;20147;-77
2022/10/18 08:06:02;;;;;;;10.35;3.80;;;;;;;14.48;52.10;93891.63;2048151;70;20159;-77
2022/10/18 08:08:28;;;;;;;12.60;4.82;;;;;;;14.73;52.11;93888.28;2048261;70;20222;-77
2022/10/18 08:10:54;;;;;;;11.82;4.40;;;;;;;14.81;51.60;93896.56;2048306;70;20582;-76
2022/10/18 08:13:20;;;;;;;17.88;5.47;;;;;;;15.18;51.70;93890.38;2048254;70;20151;-76
2022/10/18 08:15:46;;;;;;;11.60;3.97;;;;;;;15.38;51.08;93879.53;2048106;70;20186;-75
2022/10/18 08:18:12;;;;;;;8.88;3.50;;;;;;;15.70;51.35;93883.66;2048406;70;20147;-76
2022/10/18 08:20:44;;;;;;;6.20;2.80;;;;;;;15.87;49.50;93880.44;2048258;70;20170;-76
2022/10/18 08:23:10;;;;;;;13.45;4.63;;;;;;;16.13;49.95;93886.22;2048200;70;20661;-76
2022/10/18 08:25:35;;;;;;;12.93;4.55;;;;;;;16.19;49.26;93883.72;2048259;70;20151;-76
2022/10/18 08:28:01;;;;;;;6.45;3.05;;;;;;;16.26;47.70;93888.38;2048212;70;20143;-77
2022/10/18 08:30:26;;;;;;;7.90;3.30;;;;;;;16.45;48.10;93885.28;2048556;70;20166;-75
2022/10/18 08:32:52;;;;;;;7.72;3.35;;;;;;;16.58;45.88;93886.69;2048136;70;20511;-75
2022/10/18 08:35:18;;;;;;;9.73;3.63;;;;;;;16.85;47.39;93891.06;2044922;70;20150;-76
2022/10/18 08:37:44;;;;;;;14.98;4.90;;;;;;;17.18;47.17;93882.22;2048235;70;20130;-76
2022/10/18 08:40:13;;;;;;;12.35;5.10;;;;;;;17.49;45.84;93882.53;2048346;70;20146;-76
2022/10/18 08:43:06;;;;;;;9.13;3.83;;;;;;;17.59;47.28;93882.31;2048339;70;20226;-76
2022/10/18 08:45:37;;;;;;;6.97;3.03;;;;;;;17.75;45.29;93883.22;2048239;70;20158;-76
2022/10/18 08:48:04;;;;;;;8.48;3.50;;;;;;;17.82;44.16;93889.25;2048223;70;20225;-75
2022/10/18 08:50:35;;;;;;;5.13;3.15;;;;;;;17.65;45.08;93879.81;2048198;70;20150;-76
2022/10/18 08:53:23;;;;;;;9.60;3.10;;;;;;;17.71;44.93;93879.41;2048206;70;20150;-74
2022/10/18 08:55:54;;;;;;;10.77;5.18;;;;;;;17.85;44.17;93876.59;2048311;70;20147;-76
2022/10/18 08:58:19;;;;;;;11.07;5.50;;;;;;;17.57;45.79;93875.81;2048185;70;20155;-76
2022/10/18 09:01:10;;;;;;;15.07;7.28;;;;;;;17.72;45.75;93864.53;2048007;70;20142;-76
2022/10/18 09:04:13;;;;;;;13.93;6.20;;;;;;;17.73;46.99;93856.72;2048218;70;20170;-76
2022/10/18 09:06:54;;;;;;;17.77;7.68;;;;;;;17.76;47.13;93852.63;2048185;70;20143;-76
2022/10/18 09:09:32;;;;;;;19.80;11.23;;;;;;;18.04;45.92;93845.56;2048214;70;20178;-75
2022/10/18 09:12:28;;;;;;;18.08;8.52;;;;;;;18.29;45.49;93843.97;2048145;70;20245;-77
2022/10/18 09:15:07;;;;;;;12.68;6.18;;;;;;;18.31;45.57;93844.06;2044094;70;20237;-75
2022/10/18 09:17:49;;;;;;;13.73;5.15;;;;;;;19.12;44.58;93835.91;2048105;70;20180;-76
2022/10/18 09:20:34;;;;;;;5.90;3.20;;;;;;;18.77;43.25;93839.22;2048206;70;20162;-76
2022/10/18 09:23:14;;;;;;;7.65;2.95;;;;;;;19.01;40.71;93848.94;2048272;70;20591;-77
2022/10/18 09:25:56;;;;;;;7.22;2.90;;;;;;;19.82;40.69;93845.53;2048086;70;20157;-77
2022/10/18 09:28:56;;;;;;;7.03;3.03;;;;;;;19.97;38.30;93838.31;2048204;70;20174;-77
2022/10/18 09:31:47;;;;;;;8.13;3.10;;;;;;;19.98;38.10;93831.97;2048052;70;20234;-74
2022/10/18 09:34:27;;;;;;;7.85;2.95;;;;;;;20.13;38.62;93824.75;2048142;70;20248;-77
2022/10/18 09:36:53;;;;;;;4.30;2.35;;;;;;;20.11;38.06;93824.63;2048066;70;20214;-76
2022/10/18 09:39:30;;;;;;;5.78;2.72;;;;;;;20.31;38.34;93825.50;2048078;70;20163;-77
2022/10/18 09:42:10;;;;;;;6.97;2.83;;;;;;;20.61;37.63;93821.75;2048141;70;20182;-77
2022/10/18 09:44:40;;;;;;;6.68;2.83;;;;;;;20.77;36.83;93819.56;2048126;70;20139;-77
2022/10/18 09:47:16;;;;;;;6.30;2.50;;;;;;;21.50;37.34;93813.13;2047955;70;20245;-77
2022/10/18 09:49:48;;;;;;;3.40;2.20;;;;;;;21.55;36.36;93818.34;2048114;70;20526;-78
2022/10/18 09:52:33;;;;;;;4.75;2.35;;;;;;;22.49;36.06;93821.69;2048157;70;20634;-77
2022/10/18 09:55:04;;;;;;;8.48;2.78;;;;;;;22.80;36.16;93811.97;2048024;70;20138;-77
2022/10/18 09:57:40;;;;;;;5.20;2.58;;;;;;;23.54;34.80;93815.03;2048077;70;20150;-77
2022/10/18 10:00:14;;;;;;;8.57;3.05;;;;;;;24.25;33.21;93812.75;2047479;70;20151;-77
2022/10/18 10:02:40;;;;;;;7.32;2.85;;;;;;;25.08;31.32;93814.22;2047959;70;20142;-77
2022/10/18 10:05:11;;;;;;;5.35;2.40;;;;;;;24.97;29.30;93809.59;2047966;70;20137;-77
2022/10/18 10:07:46;;;;;;;6.07;2.42;;;;;;;24.81;27.99;93810.66;2047998;70;20170;-78
2022/10/18 10:10:24;;;;;;;5.90;2.45;;;;;;;25.70;28.56;93802.66;2048095;70;20151;-77
2022/10/18 10:13:13;;;;;;;7.88;3.15;;;;;;;24.79;30.41;93804.13;2047992;70;20598;-78
2022/10/18 10:15:40;;;;;;;5.78;2.60;;;;;;;24.81;29.35;93809.94;2047857;70;20257;-78
2022/10/18 10:18:19;;;;;;;5.35;2.40;;;;;;;25.40;31.02;93802.72;2048053;70;20159;-77
2022/10/18 10:20:50;;;;;;;6.60;2.25;;;;;;;25.84;31.18;93811.66;2048082;70;20151;-78
2022/10/18 10:23:30;;;;;;;7.13;2.88;;;;;;;25.74;30.36;93802.75;2048018;70;20159;-78
2022/10/18 10:26:01;;;;;;;4.35;2.60;;;;;;;25.19;30.56;93803.66;2048512;70;20269;-76
2022/10/18 10:28:31;;;;;;;7.63;2.80;;;;;;;25.46;29.94;93790.59;2051588;70;20277;-76
2022/10/18 10:31:29;;;;;;;7.95;3.08;;;;;;;24.94;30.70;93797.31;2051024;70;20621;-78
2022/10/18 10:34:02;;;;;;;5.82;2.58;;;;;;;26.17;29.55;93797.16;2048369;70;20530;-77
2022/10/18 10:36:30;;;;;;;7.07;3.17;;;;;;;26.61;28.73;93806.69;2048449;70;20186;-78
2022/10/18 10:39:08;;;;;;;4.68;2.67;;;;;;;26.67;28.22;93797.41;2048330;70;20153;-78
2022/10/18 10:41:34;;;;;;;6.57;3.10;;;;;;;27.08;28.19;93792.31;2048305;70;20145;-78
2022/10/18 10:44:04;;;;;;;8.00;3.30;;;;;;;27.53;27.65;93785.06;2048023;70;20155;-77
2022/10/18 10:46:35;;;;;;;7.47;3.20;;;;;;;25.95;29.26;93775.09;2050683;70;20210;-77
2022/10/18 10:49:01;;;;;;;7.93;3.15;;;;;;;25.42;29.61;93782.59;2051478;70;20142;-76
2022/10/18 10:51:37;;;;;;;12.25;3.72;;;;;;;26.44;29.10;93773.19;2051438;70;20169;-76
2022/10/18 10:54:19;;;;;;;11.93;3.58;;;;;;;26.05;30.14;93772.41;2051448;70;20222;-75
2022/10/18 10:57:11;;;;;;;5.97;3.03;;;;;;;27.00;29.58;93769.06;2053641;70;20152;-77
2022/10/18 10:59:43;;;;;;;6.45;3.35;;;;;;;25.88;30.48;93764.84;2051458;70;20246;-76
2022/10/18 11:02:13;;;;;;;5.78;3.22;;;;;;;25.64;30.65;93761.44;2051133;70;20138;-77
2022/10/18 11:04:40;;;;;;;7.97;2.72;;;;;;;25.99;30.69;93752.09;2051443;70;20715;-75
2022/10/18 11:07:45;;;;;;;12.10;3.40;;;;;;;26.05;31.05;93755.09;2051444;70;20154;-75
2022/10/18 11:10:25;;;;;;;8.55;3.40;;;;;;;25.21;32.36;93746.81;2050888;70;20193;-77
2022/10/18 11:13:23;;;;;;;10.23;3.70;;;;;;;25.39;31.98;93742.91;2051527;70;20197;-78
2022/10/18 11:16:03;;;;;;;11.43;3.92;;;;;;;24.90;32.63;93742.47;2051237;70;20600;-77
2022/10/18 11:18:33;;;;;;;10.43;3.80;;;;;;;24.07;32.85;93732.47;2051326;70;20142;-78
2022/10/18 11:21:07;;;;;;;9.82;3.30;;;;;;;24.62;33.37;93725.25;2051262;70;20141;-78
2022/10/18 11:23:38;;;;;;;10.00;3.75;;;;;;;24.56;33.17;93717.22;2051294;70;20213;-76
2022/10/18 11:26:31;;;;;;;7.65;3.33;;;;;;;24.08;34.18;93711.63;2048241;70;20130;-76
2022/10/18 11:29:12;;;;;;;10.25;4.32;;;;;;;23.73;35.03;93709.22;2051416;70;20244;-78
2022/10/18 11:32:01;;;;;;;11.88;3.90;;;;;;;24.13;35.05;93711.75;2051385;70;20150;-77
2022/10/18 11:34:57;;;;;;;9.43;4.32;;;;;;;24.42;35.18;93704.59;2051309;70;20217;-77
2022/10/18 11:38:00;;;;;;;11.18;4.32;;;;;;;23.74;34.25;93707.84;2051590;70;20606;-80
2022/10/18 11:40:53;;;;;;;8.23;3.90;;;;;;;23.78;34.81;93694.31;2051371;70;20142;-79
2022/10/18 11:43:19;;;;;;;17.33;4.50;;;;;;;24.17;34.60;93697.47;2051952;70;20138;-76
2022/10/18 11:46:07;;;;;;;14.55;4.57;;;;;;;23.61;34.66;93694.50;2051813;70;20150;-79
2022/10/18 11:48:35;;;;;;;10.38;4.00;;;;;;;23.49;35.93;93695.63;2051875;70;20212;-78